createdAt,value
2019-01-30T00:00:09.820Z,26.2
2019-01-30T00:00:59.863Z,26
2019-01-30T00:01:49.658Z,25.8
2019-01-30T00:02:41.099Z,25.8
2019-01-30T00:03:30.781Z,25.9
2019-01-30T00:04:21.040Z,26.3
2019-01-30T00:05:09.792Z,26.5
2019-01-30T00:05:59.845Z,26.7
2019-01-30T00:06:49.887Z,26.8
2019-01-30T00:07:40.787Z,27
2019-01-30T00:08:30.013Z,27.2
2019-01-30T00:09:20.730Z,27.3
2019-01-30T00:10:11.287Z,27.4
2019-01-30T00:11:00.241Z,27.5
2019-01-30T00:11:50.637Z,27.6
2019-01-30T00:12:41.159Z,27.7
2019-01-30T00:13:30.094Z,27.8
2019-01-30T00:14:21.607Z,27.9
2019-01-30T00:15:11.319Z,27.9
2019-01-30T00:16:07.194Z,28
2019-01-30T00:16:50.847Z,28.1
2019-01-30T00:17:41.192Z,28.1
2019-01-30T00:18:32.175Z,28.1
2019-01-30T00:19:20.203Z,28.1
2019-01-30T00:20:11.221Z,28.2
2019-01-30T00:21:01.996Z,28.3
2019-01-30T00:21:50.974Z,28.3
2019-01-30T00:22:42.405Z,28.4
2019-01-30T00:23:31.946Z,28.4
2019-01-30T00:24:22.011Z,28.4
2019-01-30T00:25:11.726Z,28.4
2019-01-30T00:26:02.461Z,28.4
2019-01-30T00:26:51.316Z,28.3
2019-01-30T00:27:41.990Z,27.4
2019-01-30T00:28:32.522Z,27.5
2019-01-30T00:29:22.754Z,28.2
2019-01-30T00:31:02.811Z,26.9
2019-01-30T00:31:51.943Z,26.6
2019-01-30T00:32:41.223Z,26.4
2019-01-30T00:33:32.023Z,26.4
2019-01-30T00:34:22.703Z,26.6
2019-01-30T00:35:12.718Z,26.8
2019-01-30T00:36:02.823Z,27.1
2019-01-30T00:36:51.725Z,27.2
2019-01-30T00:37:42.305Z,27.4
2019-01-30T00:38:32.675Z,27.4
2019-01-30T00:39:22.715Z,27.6
2019-01-30T00:40:13.681Z,27.7
2019-01-30T00:41:02.405Z,27.8
2019-01-30T00:41:51.493Z,27.9
2019-01-30T00:42:42.713Z,27.9
2019-01-30T00:43:33.335Z,28.1
2019-01-30T00:44:22.557Z,28.1
2019-01-30T00:45:12.640Z,28.1
2019-01-30T00:46:03.187Z,28.1
2019-01-30T00:46:53.546Z,28.2
2019-01-30T00:47:45.935Z,28.3
2019-01-30T00:48:33.638Z,28.3
2019-01-30T00:49:21.590Z,28.4
2019-01-30T00:50:13.418Z,28.3
2019-01-30T00:51:03.508Z,28.4
2019-01-30T00:51:52.710Z,28.3
2019-01-30T00:52:43.735Z,28.3
2019-01-30T00:53:34.523Z,27.6
2019-01-30T00:54:33.942Z,27.3
2019-01-30T00:55:13.514Z,28.2
2019-01-30T00:56:04.247Z,27.3
2019-01-30T00:56:54.457Z,26.7
2019-01-30T00:57:44.538Z,26.4
2019-01-30T00:58:33.598Z,26.4
2019-01-30T00:59:24.052Z,26.4
2019-01-30T01:00:23.837Z,26.7
2019-01-30T01:01:06.471Z,26.9
2019-01-30T01:01:54.326Z,27.1
2019-01-30T01:02:44.129Z,27.3
2019-01-30T01:03:34.147Z,27.4
2019-01-30T01:04:24.724Z,27.5
2019-01-30T01:05:14.474Z,27.6
2019-01-30T01:06:04.267Z,27.7
2019-01-30T01:07:45.229Z,27.9
2019-01-30T01:08:35.269Z,27.9
2019-01-30T01:09:25.734Z,28
2019-01-30T01:10:14.863Z,28.1
2019-01-30T01:11:04.591Z,28.1
2019-01-30T01:11:55.011Z,28.2
2019-01-30T01:12:45.281Z,28.2
2019-01-30T01:13:33.484Z,28.2
2019-01-30T01:14:24.710Z,28.3
2019-01-30T01:15:15.799Z,28.3
2019-01-30T01:16:05.064Z,28.3
2019-01-30T01:16:56.111Z,28.4
2019-01-30T01:17:44.834Z,28.4
2019-01-30T01:18:34.458Z,28.3
2019-01-30T01:19:25.017Z,28.3
2019-01-30T01:20:15.841Z,28.3
2019-01-30T01:21:04.578Z,28.1
2019-01-30T01:21:55.357Z,27.4
2019-01-30T01:22:45.361Z,27
2019-01-30T01:23:36.021Z,26.4
2019-01-30T01:24:25.283Z,26.6
2019-01-30T01:25:15.363Z,27.3
2019-01-30T01:26:05.722Z,26.9
2019-01-30T01:26:56.238Z,26.4
2019-01-30T01:27:45.921Z,26.3
2019-01-30T01:28:36.167Z,26.3
2019-01-30T01:29:25.927Z,26.3
2019-01-30T01:30:27.347Z,26.6
2019-01-30T01:31:05.988Z,26.8
2019-01-30T01:31:56.965Z,27
2019-01-30T01:32:48.367Z,26.9
2019-01-30T01:33:36.267Z,26.8
2019-01-30T01:34:26.834Z,26.6
2019-01-30T01:35:14.487Z,26.3
2019-01-30T01:36:05.515Z,26.2
2019-01-30T01:36:55.425Z,26.1
2019-01-30T01:37:46.999Z,26
2019-01-30T01:38:36.772Z,26.1
2019-01-30T01:39:26.590Z,26.3
2019-01-30T01:40:15.817Z,26.5
2019-01-30T01:41:06.108Z,26.7
2019-01-30T01:41:57.679Z,26.6
2019-01-30T01:42:47.629Z,26.3
2019-01-30T01:43:36.872Z,26.1
2019-01-30T01:44:27.222Z,26
2019-01-30T01:45:17.626Z,26
2019-01-30T01:46:07.891Z,26.2
2019-01-30T01:46:57.446Z,26.5
2019-01-30T01:47:46.936Z,26.7
2019-01-30T01:48:37.841Z,26.9
2019-01-30T01:49:27.692Z,27.1
2019-01-30T01:50:17.986Z,27.2
2019-01-30T01:51:07.922Z,27.3
2019-01-30T01:51:58.516Z,27.4
2019-01-30T01:52:46.673Z,27.6
2019-01-30T01:53:37.037Z,27.7
2019-01-30T01:55:17.470Z,27.9
2019-01-30T01:56:08.513Z,27.9
2019-01-30T01:56:58.413Z,28.1
2019-01-30T01:57:48.670Z,28.1
2019-01-30T01:58:37.871Z,28.1
2019-01-30T01:59:27.368Z,28.1
2019-01-30T02:00:17.773Z,28.1
2019-01-30T02:01:09.448Z,28.2
2019-01-30T02:01:58.098Z,28.3
2019-01-30T02:02:49.298Z,28.3
2019-01-30T02:03:39.053Z,28.4
2019-01-30T02:04:28.357Z,28.4
2019-01-30T02:05:18.814Z,28.4
2019-01-30T02:06:08.328Z,28.4
2019-01-30T02:06:57.980Z,28.1
2019-01-30T02:07:48.520Z,27.5
2019-01-30T02:08:38.375Z,27.1
2019-01-30T02:09:28.822Z,26.5
2019-01-30T02:10:17.179Z,26.7
2019-01-30T02:11:09.667Z,27.4
2019-01-30T02:11:59.148Z,26.8
2019-01-30T02:12:47.850Z,26.4
2019-01-30T02:13:39.287Z,26.3
2019-01-30T02:14:29.170Z,26.3
2019-01-30T02:15:19.154Z,26.4
2019-01-30T02:16:09.109Z,26.6
2019-01-30T02:16:59.757Z,26.8
2019-01-30T02:17:49.907Z,27.1
2019-01-30T02:18:40.092Z,27.2
2019-01-30T02:19:29.967Z,27.4
2019-01-30T02:20:19.485Z,27.5
2019-01-30T02:21:10.004Z,27.6
2019-01-30T02:21:59.797Z,27.7
2019-01-30T02:22:49.837Z,27.8
2019-01-30T02:23:39.719Z,27.9
2019-01-30T02:24:30.025Z,27.9
2019-01-30T02:25:20.684Z,28.1
2019-01-30T02:26:09.781Z,28.1
2019-01-30T02:26:59.847Z,28.1
2019-01-30T02:27:50.574Z,28.1
2019-01-30T02:28:41.053Z,28.1
2019-01-30T02:29:30.451Z,28.2
2019-01-30T02:30:20.246Z,28.3
2019-01-30T02:31:10.237Z,28.3
2019-01-30T02:32:00.879Z,28.3
2019-01-30T02:32:51.121Z,28.3
2019-01-30T02:33:40.408Z,28.3
2019-01-30T02:34:30.689Z,28.3
2019-01-30T02:35:20.299Z,28.3
2019-01-30T02:37:01.312Z,27.2
2019-01-30T02:37:50.408Z,27.6
2019-01-30T02:38:40.868Z,28
2019-01-30T02:39:31.086Z,27.1
2019-01-30T02:40:20.976Z,26.7
2019-01-30T02:41:11.532Z,26.5
2019-01-30T02:42:00.038Z,26.4
2019-01-30T02:42:50.828Z,26.6
2019-01-30T02:43:41.114Z,26.8
2019-01-30T02:44:31.126Z,27.1
2019-01-30T02:45:21.867Z,27.2
2019-01-30T02:46:12.130Z,27.3
2019-01-30T02:47:01.831Z,27.4
2019-01-30T02:47:50.611Z,27.6
2019-01-30T02:48:41.806Z,27.6
2019-01-30T02:49:31.437Z,27.8
2019-01-30T02:51:12.445Z,27.9
2019-01-30T02:52:02.757Z,28
2019-01-30T02:52:50.606Z,28.1
2019-01-30T02:53:42.122Z,28.1
2019-01-30T02:54:32.367Z,28.1
2019-01-30T02:55:22.221Z,28.2
2019-01-30T02:56:12.961Z,28.3
2019-01-30T02:57:02.486Z,28.3
2019-01-30T02:57:52.895Z,28.3
2019-01-30T02:58:42.312Z,28.3
2019-01-30T02:59:32.719Z,28.3
2019-01-30T03:00:22.964Z,28.4
2019-01-30T03:01:11.997Z,28.4
2019-01-30T03:02:02.519Z,28.4
2019-01-30T03:02:53.427Z,28.4
2019-01-30T03:03:42.805Z,28.4
2019-01-30T03:04:31.456Z,28.3
2019-01-30T03:05:22.949Z,27.9
2019-01-30T03:08:34.710Z,26.5
2019-01-30T03:09:24.171Z,26.5
2019-01-30T03:10:15.127Z,26.9
2019-01-30T03:11:04.386Z,26.9
2019-01-30T03:11:54.904Z,26.5
2019-01-30T03:12:44.946Z,26.4
2019-01-30T03:13:34.807Z,26.3
2019-01-30T03:14:24.856Z,26.4
2019-01-30T03:15:14.653Z,26.6
2019-01-30T03:16:04.889Z,26.8
2019-01-30T03:16:55.881Z,27
2019-01-30T03:17:45.540Z,27.2
2019-01-30T03:18:35.148Z,27.1
2019-01-30T03:19:24.099Z,26.9
2019-01-30T03:20:15.487Z,26.8
2019-01-30T03:21:05.780Z,26.5
2019-01-30T03:21:56.142Z,26.4
2019-01-30T03:22:45.362Z,26.2
2019-01-30T03:23:34.087Z,26
2019-01-30T03:24:25.123Z,25.9
2019-01-30T03:25:16.080Z,25.9
2019-01-30T03:26:06.411Z,26.1
2019-01-30T03:26:55.555Z,26.4
2019-01-30T03:27:44.735Z,26.6
2019-01-30T03:28:35.042Z,26.6
2019-01-30T03:29:25.526Z,26.8
2019-01-30T03:30:16.650Z,26.4
2019-01-30T03:31:25.718Z,26.2
2019-01-30T03:31:56.376Z,25.9
2019-01-30T03:32:46.154Z,25.9
2019-01-30T03:33:36.248Z,26.1
2019-01-30T03:34:26.234Z,26.4
2019-01-30T03:35:16.132Z,26.6
2019-01-30T03:36:06.626Z,26.9
2019-01-30T03:36:56.882Z,27
2019-01-30T03:37:46.466Z,27.2
2019-01-30T03:38:36.458Z,27.3
2019-01-30T03:39:26.556Z,27.4
2019-01-30T03:40:16.042Z,27.6
2019-01-30T03:41:06.646Z,27.7
2019-01-30T03:41:56.701Z,27.8
2019-01-30T03:42:46.267Z,27.9
2019-01-30T03:43:37.369Z,27.9
2019-01-30T03:44:27.257Z,28
2019-01-30T03:45:16.290Z,28.1
2019-01-30T03:46:07.221Z,28.2
2019-01-30T03:46:56.274Z,28.1
2019-01-30T03:47:47.432Z,28.2
2019-01-30T03:48:37.086Z,28.3
2019-01-30T03:49:27.755Z,28.3
2019-01-30T03:50:16.926Z,28.4
2019-01-30T03:51:07.321Z,28.4
2019-01-30T03:51:58.045Z,28.4
2019-01-30T03:52:47.811Z,28.5
2019-01-30T03:53:37.503Z,28.5
2019-01-30T03:54:27.788Z,28.5
2019-01-30T03:55:18.337Z,27.9
2019-01-30T03:56:06.935Z,27.3
2019-01-30T03:56:57.706Z,27.9
2019-01-30T03:57:48.592Z,27.6
2019-01-30T03:58:38.428Z,26.9
2019-01-30T03:59:27.608Z,26.6
2019-01-30T04:00:18.219Z,26.5
2019-01-30T04:01:08.245Z,26.6
2019-01-30T04:01:58.630Z,26.8
2019-01-30T04:02:48.657Z,26.9
2019-01-30T04:03:38.165Z,27.2
2019-01-30T04:04:28.855Z,27.3
2019-01-30T04:05:18.342Z,27.4
2019-01-30T04:06:08.607Z,27.6
2019-01-30T04:06:57.947Z,27.7
2019-01-30T04:08:37.632Z,27.9
2019-01-30T04:09:28.087Z,28
2019-01-30T04:10:18.422Z,28.1
2019-01-30T04:11:08.714Z,28.1
2019-01-30T04:11:59.527Z,28.2
2019-01-30T04:12:49.375Z,28.2
2019-01-30T04:13:38.685Z,28.3
2019-01-30T04:14:28.949Z,28.3
2019-01-30T04:15:18.775Z,28.4
2019-01-30T04:16:09.539Z,28.4
2019-01-30T04:16:59.637Z,28.4
2019-01-30T04:17:49.111Z,28.4
2019-01-30T04:18:39.454Z,28.4
2019-01-30T04:19:29.009Z,28.4
2019-01-30T04:20:19.049Z,27.9
2019-01-30T04:21:09.607Z,27.4
2019-01-30T04:21:59.333Z,27.1
2019-01-30T04:22:49.571Z,26.6
2019-01-30T04:23:40.227Z,26.6
2019-01-30T04:24:30.459Z,27.3
2019-01-30T04:25:34.912Z,26.9
2019-01-30T04:26:09.899Z,26.4
2019-01-30T04:27:00.614Z,26.4
2019-01-30T04:27:49.815Z,26.3
2019-01-30T04:28:40.288Z,26.4
2019-01-30T04:29:29.646Z,26.6
2019-01-30T04:30:20.841Z,26.8
2019-01-30T04:31:10.594Z,27
2019-01-30T04:32:00.458Z,27.2
2019-01-30T04:32:49.415Z,27.3
2019-01-30T04:33:40.777Z,27.4
2019-01-30T04:34:30.987Z,27.6
2019-01-30T04:35:21.218Z,27.7
2019-01-30T04:37:00.126Z,27.9
2019-01-30T04:37:51.354Z,27.9
2019-01-30T04:38:40.594Z,28
2019-01-30T04:39:31.657Z,28.1
2019-01-30T04:40:20.690Z,28.1
2019-01-30T04:41:11.056Z,28.2
2019-01-30T04:42:00.762Z,28.2
2019-01-30T04:42:51.040Z,28.2
2019-01-30T04:43:41.755Z,28.3
2019-01-30T04:44:31.292Z,28.3
2019-01-30T04:45:20.733Z,28.3
2019-01-30T04:46:11.895Z,28.3
2019-01-30T04:47:00.560Z,28.3
2019-01-30T04:47:51.580Z,28.4
2019-01-30T04:48:41.255Z,28.3
2019-01-30T04:49:31.843Z,28.3
2019-01-30T04:50:22.084Z,27.9
2019-01-30T04:51:11.702Z,27.3
2019-01-30T04:52:01.488Z,27.6
2019-01-30T04:52:51.686Z,27.9
2019-01-30T04:53:41.304Z,27.1
2019-01-30T04:54:31.916Z,26.8
2019-01-30T04:55:21.506Z,26.6
2019-01-30T04:56:12.271Z,26.5
2019-01-30T04:57:01.580Z,26.6
2019-01-30T04:57:52.165Z,26.9
2019-01-30T04:58:42.289Z,27.1
2019-01-30T04:59:32.570Z,27.3
2019-01-30T05:00:22.666Z,27.4
2019-01-30T05:01:12.354Z,27.5
2019-01-30T05:02:02.741Z,27.6
2019-01-30T05:02:53.152Z,27.5
2019-01-30T05:03:41.459Z,27.3
2019-01-30T05:04:31.849Z,27.1
2019-01-30T05:05:22.499Z,26.8
2019-01-30T05:06:12.530Z,26.6
2019-01-30T05:07:02.857Z,26.5
2019-01-30T05:07:52.235Z,26.4
2019-01-30T05:08:42.624Z,26.3
2019-01-30T05:09:32.817Z,26.6
2019-01-30T05:10:23.353Z,26.8
2019-01-30T05:11:13.563Z,26.9
2019-01-30T05:12:02.265Z,27.1
2019-01-30T05:12:53.291Z,26.8
2019-01-30T05:13:43.056Z,26.6
2019-01-30T05:14:32.441Z,26.4
2019-01-30T05:15:23.023Z,26.2
2019-01-30T05:16:13.015Z,26.3
2019-01-30T05:17:02.810Z,26.5
2019-01-30T05:17:52.878Z,26.8
2019-01-30T05:18:43.330Z,26.9
2019-01-30T05:19:34.140Z,27.1
2019-01-30T05:20:22.710Z,27.3
2019-01-30T05:21:13.616Z,27.4
2019-01-30T05:22:03.525Z,27.6
2019-01-30T05:22:53.981Z,27.6
2019-01-30T05:23:44.352Z,27.8
2019-01-30T05:24:33.877Z,27.9
2019-01-30T05:25:23.609Z,27.9
2019-01-30T05:26:13.116Z,28
2019-01-30T05:27:04.458Z,28.1
2019-01-30T05:27:54.342Z,28.1
2019-01-30T05:28:44.320Z,28.1
2019-01-30T05:29:34.046Z,28.2
2019-01-30T05:30:24.235Z,28.3
2019-01-30T05:31:14.792Z,28.4
2019-01-30T05:32:11.374Z,28.4
2019-01-30T05:32:54.609Z,28.4
2019-01-30T05:33:44.337Z,28.4
2019-01-30T05:34:34.923Z,28.4
2019-01-30T05:35:25.150Z,28.5
2019-01-30T05:36:14.056Z,27.9
2019-01-30T05:37:04.549Z,27.4
2019-01-30T05:37:57.574Z,27.1
2019-01-30T05:38:45.268Z,26.6
2019-01-30T05:39:35.042Z,26.6
2019-01-30T05:40:25.882Z,27.4
2019-01-30T05:41:15.286Z,27.1
2019-01-30T05:42:04.429Z,26.6
2019-01-30T05:42:55.524Z,26.4
2019-01-30T05:43:48.927Z,26.4
2019-01-30T05:44:35.524Z,26.4
2019-01-30T05:45:25.374Z,26.6
2019-01-30T05:46:15.164Z,26.8
2019-01-30T05:47:05.799Z,27.1
2019-01-30T05:47:56.057Z,27.3
2019-01-30T05:48:45.641Z,27.4
2019-01-30T05:49:38.651Z,27.5
2019-01-30T05:50:25.483Z,27.6
2019-01-30T05:51:15.858Z,27.7
2019-01-30T05:52:55.763Z,27.9
2019-01-30T05:53:46.508Z,28
2019-01-30T05:54:36.036Z,28.1
2019-01-30T05:55:25.884Z,28.1
2019-01-30T05:56:16.525Z,28.2
2019-01-30T05:57:06.493Z,28.2
2019-01-30T05:57:56.005Z,28.2
2019-01-30T05:58:45.649Z,28.3
2019-01-30T05:59:36.423Z,28.3
2019-01-30T06:00:26.130Z,28.4
2019-01-30T06:01:16.487Z,28.4
2019-01-30T06:02:20.092Z,28.4
2019-01-30T06:02:56.442Z,28.5
2019-01-30T06:03:47.203Z,28.4
2019-01-30T06:06:33.617Z,27.3
2019-01-30T06:07:23.477Z,26.9
2019-01-30T06:08:14.037Z,26.5
2019-01-30T06:09:04.037Z,26.7
2019-01-30T06:09:53.795Z,27.4
2019-01-30T06:10:44.154Z,27.4
2019-01-30T06:11:34.499Z,26.8
2019-01-30T06:12:24.257Z,26.5
2019-01-30T06:13:14.887Z,26.4
2019-01-30T06:14:04.469Z,26.4
2019-01-30T06:14:54.618Z,26.6
2019-01-30T06:15:45.699Z,26.8
2019-01-30T06:16:35.349Z,27
2019-01-30T06:17:24.319Z,27.2
2019-01-30T06:18:14.960Z,27.3
2019-01-30T06:19:03.984Z,27.4
2019-01-30T06:19:54.006Z,27.6
2019-01-30T06:20:44.984Z,27.7
2019-01-30T06:22:25.249Z,27.9
2019-01-30T06:23:14.869Z,27.9
2019-01-30T06:24:05.754Z,28.1
2019-01-30T06:24:55.807Z,28.1
2019-01-30T06:25:45.558Z,28.2
2019-01-30T06:26:34.961Z,28.2
2019-01-30T06:27:26.459Z,28.2
2019-01-30T06:28:15.767Z,28.2
2019-01-30T06:29:04.562Z,28.2
2019-01-30T06:29:55.438Z,28.3
2019-01-30T06:30:45.508Z,28.3
2019-01-30T06:31:37.630Z,28.3
2019-01-30T06:32:32.278Z,28.3
2019-01-30T06:33:15.470Z,28.3
2019-01-30T06:34:06.323Z,28.3
2019-01-30T06:34:59.405Z,28.2
2019-01-30T06:35:45.940Z,27.5
2019-01-30T06:36:35.666Z,27.4
2019-01-30T06:37:29.003Z,27.9
2019-01-30T06:38:14.703Z,27.1
2019-01-30T06:39:05.975Z,26.8
2019-01-30T06:39:56.315Z,26.6
2019-01-30T06:40:46.467Z,26.6
2019-01-30T06:41:36.247Z,26.7
2019-01-30T06:42:26.932Z,26.8
2019-01-30T06:43:15.902Z,26.8
2019-01-30T06:44:06.173Z,26.9
2019-01-30T06:44:57.405Z,26.9
2019-01-30T06:45:46.502Z,26.9
2019-01-30T06:46:36.414Z,26.9
2019-01-30T06:47:27.104Z,27
2019-01-30T06:48:16.984Z,26.9
2019-01-30T06:49:08.092Z,26.9
2019-01-30T06:49:57.149Z,26.9
2019-01-30T06:50:47.229Z,26.7
2019-01-30T06:51:36.441Z,26.4
2019-01-30T06:52:27.375Z,26.1
2019-01-30T06:53:17.430Z,25.9
2019-01-30T06:54:07.229Z,25.9
2019-01-30T06:54:56.092Z,25.8
2019-01-30T06:55:46.461Z,25.8
2019-01-30T06:56:37.166Z,25.5
2019-01-30T06:57:26.551Z,25.5
2019-01-30T06:58:17.196Z,25.7
2019-01-30T06:59:07.493Z,25.6
2019-01-30T06:59:57.641Z,25.6
2019-01-30T07:00:47.084Z,25.7
2019-01-30T07:01:36.645Z,25.7
2019-01-30T07:02:38.664Z,25.8
2019-01-30T07:03:18.576Z,26.1
2019-01-30T07:04:08.920Z,26.3
2019-01-30T07:06:34.986Z,26.4
2019-01-30T07:07:23.583Z,26.2
2019-01-30T07:08:14.621Z,26.1
2019-01-30T07:09:04.783Z,25.9
2019-01-30T07:09:54.383Z,25.7
2019-01-30T07:10:44.714Z,25.6
2019-01-30T07:11:34.816Z,25.6
2019-01-30T07:12:24.745Z,25.8
2019-01-30T07:13:14.013Z,26.1
2019-01-30T07:14:04.082Z,26.3
2019-01-30T07:14:54.368Z,26.1
2019-01-30T07:15:44.545Z,25.9
2019-01-30T07:16:34.835Z,25.8
2019-01-30T07:17:25.079Z,25.6
2019-01-30T07:18:14.318Z,25.6
2019-01-30T07:19:05.325Z,25.8
2019-01-30T07:19:55.267Z,26.1
2019-01-30T07:20:44.307Z,26.3
2019-01-30T07:21:35.130Z,26.6
2019-01-30T07:22:25.535Z,26.7
2019-01-30T07:23:14.944Z,26.8
2019-01-30T07:24:05.882Z,26.8
2019-01-30T07:24:54.854Z,26.8
2019-01-30T07:25:46.024Z,26.9
2019-01-30T07:26:35.439Z,26.9
2019-01-30T07:27:24.481Z,26.9
2019-01-30T07:28:15.028Z,26.8
2019-01-30T07:29:05.698Z,26.8
2019-01-30T07:29:55.673Z,26.8
2019-01-30T07:30:45.078Z,26.4
2019-01-30T07:31:35.996Z,26.1
2019-01-30T07:32:26.393Z,25.9
2019-01-30T07:33:16.188Z,25.8
2019-01-30T07:34:06.306Z,25.7
2019-01-30T07:34:55.072Z,25.6
2019-01-30T07:35:45.075Z,25.3
2019-01-30T07:36:36.715Z,25.4
2019-01-30T07:37:25.523Z,25.5
2019-01-30T07:38:15.145Z,25.4
2019-01-30T07:39:06.030Z,25.4
2019-01-30T07:39:57.025Z,25.4
2019-01-30T07:40:45.632Z,25.4
2019-01-30T07:41:36.795Z,25.6
2019-01-30T07:42:27.075Z,25.9
2019-01-30T07:43:16.025Z,26.2
2019-01-30T07:44:06.663Z,26.4
2019-01-30T07:45:00.712Z,26.6
2019-01-30T07:45:46.883Z,26.6
2019-01-30T07:46:36.250Z,26.7
2019-01-30T07:47:26.049Z,26.8
2019-01-30T07:48:17.169Z,26.8
2019-01-30T07:49:06.170Z,26.8
2019-01-30T07:49:56.829Z,26.8
2019-01-30T07:50:46.984Z,26.8
2019-01-30T07:51:36.460Z,26.7
2019-01-30T07:52:27.244Z,26.7
2019-01-30T07:53:17.544Z,26.6
2019-01-30T07:54:07.465Z,26.6
2019-01-30T07:54:57.104Z,26.6
2019-01-30T07:55:47.824Z,26.5
2019-01-30T07:56:39.658Z,26.4
2019-01-30T07:57:28.124Z,26.4
2019-01-30T07:58:17.631Z,26.3
2019-01-30T07:59:07.972Z,25.8
2019-01-30T07:59:58.310Z,25.6
2019-01-30T08:00:47.034Z,25.6
2019-01-30T08:01:38.328Z,25.4
2019-01-30T08:02:29.880Z,25.3
2019-01-30T08:03:18.548Z,25.3
2019-01-30T08:04:08.644Z,25.3
2019-01-30T08:04:57.271Z,25.4
2019-01-30T08:05:48.120Z,25.6
2019-01-30T08:06:37.423Z,25.9
2019-01-30T08:07:30.161Z,26.1
2019-01-30T08:08:18.046Z,26.4
2019-01-30T08:09:08.379Z,26.5
2019-01-30T08:09:58.201Z,26.6
2019-01-30T08:10:48.270Z,26.6
2019-01-30T08:11:40.680Z,26.7
2019-01-30T08:12:28.673Z,26.7
2019-01-30T08:13:18.396Z,26.7
2019-01-30T08:14:12.045Z,26.7
2019-01-30T08:14:58.463Z,26.7
2019-01-30T08:15:48.566Z,26.7
2019-01-30T08:16:39.013Z,26.6
2019-01-30T08:17:31.643Z,26.6
2019-01-30T08:18:19.335Z,26.6
2019-01-30T08:19:09.068Z,26.5
2019-01-30T08:20:00.670Z,26.4
2019-01-30T08:20:49.256Z,26.4
2019-01-30T08:21:39.589Z,26.4
2019-01-30T08:22:29.817Z,26.3
2019-01-30T08:23:23.117Z,25.6
2019-01-30T08:24:14.473Z,25.5
2019-01-30T08:25:03.203Z,25.5
2019-01-30T08:25:52.953Z,25.3
2019-01-30T08:26:43.718Z,25.1
2019-01-30T08:27:35.261Z,25.2
2019-01-30T08:28:25.797Z,25.2
2019-01-30T08:29:13.955Z,25.3
2019-01-30T08:30:03.953Z,25.6
2019-01-30T08:30:53.942Z,25.9
2019-01-30T08:31:43.514Z,26.1
2019-01-30T08:32:36.137Z,26.3
2019-01-30T08:33:23.426Z,26.4
2019-01-30T08:34:10.224Z,26.5
2019-01-30T08:35:00.689Z,26.6
2019-01-30T08:35:50.036Z,26.6
2019-01-30T08:36:40.306Z,26.6
2019-01-30T08:37:30.646Z,26.6
2019-01-30T08:38:20.186Z,26.6
2019-01-30T08:39:11.019Z,26.6
2019-01-30T08:40:00.917Z,26.6
2019-01-30T08:40:50.241Z,26.6
2019-01-30T08:41:40.944Z,26.5
2019-01-30T08:42:30.893Z,26.4
2019-01-30T08:43:19.844Z,26.4
2019-01-30T08:44:10.166Z,26.4
2019-01-30T08:45:00.702Z,26.3
2019-01-30T08:45:50.899Z,26.3
2019-01-30T08:46:41.401Z,26.1
2019-01-30T08:47:31.310Z,25.5
2019-01-30T08:48:20.343Z,25.4
2019-01-30T08:49:11.078Z,25.4
2019-01-30T08:50:00.314Z,25.1
2019-01-30T08:50:50.924Z,25.1
2019-01-30T08:51:41.533Z,25.1
2019-01-30T08:52:30.147Z,25.1
2019-01-30T08:53:20.975Z,25.3
2019-01-30T08:54:10.516Z,25.6
2019-01-30T08:55:01.003Z,25.9
2019-01-30T08:55:52.370Z,26.1
2019-01-30T08:57:01.927Z,26.3
2019-01-30T08:57:32.200Z,26.5
2019-01-30T08:58:21.727Z,26.5
2019-01-30T08:59:14.910Z,26.6
2019-01-30T09:00:00.678Z,26.6
2019-01-30T09:00:51.365Z,26.7
2019-01-30T09:01:42.254Z,26.7
2019-01-30T09:02:31.773Z,26.6
2019-01-30T09:03:25.020Z,26.6
2019-01-30T09:04:15.389Z,26.6
2019-01-30T09:05:02.282Z,26.6
2019-01-30T09:05:52.635Z,26.6
2019-01-30T09:06:42.684Z,26.5
2019-01-30T09:07:32.375Z,26.5
2019-01-30T09:08:23.185Z,26.4
2019-01-30T09:09:12.252Z,26.4
2019-01-30T09:10:02.589Z,26.3
2019-01-30T09:10:51.459Z,26.1
2019-01-30T09:11:42.344Z,25.5
2019-01-30T09:12:32.477Z,25.4
2019-01-30T09:13:22.612Z,25.4
2019-01-30T09:14:12.779Z,25.1
2019-01-30T09:15:02.717Z,25
2019-01-30T09:15:52.353Z,25.1
2019-01-30T09:16:42.769Z,25.1
2019-01-30T09:17:33.044Z,25.3
2019-01-30T09:18:23.946Z,25.6
2019-01-30T09:19:13.544Z,25.9
2019-01-30T09:20:03.806Z,26.1
2019-01-30T09:20:53.849Z,26.3
2019-01-30T09:21:42.648Z,26.4
2019-01-30T09:22:32.884Z,26.5
2019-01-30T09:23:23.749Z,26.5
2019-01-30T09:24:17.187Z,26.6
2019-01-30T09:25:03.926Z,26.6
2019-01-30T09:25:53.618Z,26.7
2019-01-30T09:26:43.126Z,26.7
2019-01-30T09:27:34.396Z,26.6
2019-01-30T09:28:23.764Z,26.6
2019-01-30T09:29:12.991Z,26.6
2019-01-30T09:30:03.258Z,26.6
2019-01-30T09:30:53.918Z,26.5
2019-01-30T09:31:44.701Z,26.4
2019-01-30T09:32:33.988Z,26.4
2019-01-30T09:33:35.305Z,26.4
2019-01-30T09:34:14.651Z,26.3
2019-01-30T09:35:03.603Z,26
2019-01-30T09:35:54.390Z,25.5
2019-01-30T09:36:44.819Z,25.4
2019-01-30T09:37:37.515Z,25.2
2019-01-30T09:38:23.547Z,25
2019-01-30T09:39:14.771Z,25
2019-01-30T09:40:04.752Z,25.1
2019-01-30T09:40:53.970Z,25.1
2019-01-30T09:41:44.987Z,25.4
2019-01-30T09:42:35.369Z,25.7
2019-01-30T09:43:25.130Z,25.9
2019-01-30T09:44:14.577Z,26.2
2019-01-30T09:45:05.475Z,26.4
2019-01-30T09:45:54.347Z,26.4
2019-01-30T09:46:45.444Z,26.5
2019-01-30T09:47:35.132Z,26.6
2019-01-30T09:48:24.624Z,26.6
2019-01-30T09:49:15.878Z,26.7
2019-01-30T09:50:06.044Z,26.6
2019-01-30T09:50:54.481Z,26.6
2019-01-30T09:51:45.730Z,26.6
2019-01-30T09:52:37.557Z,26.6
2019-01-30T09:53:25.988Z,26.6
2019-01-30T09:54:15.249Z,26.6
2019-01-30T09:55:05.751Z,26.5
2019-01-30T09:55:55.466Z,26.5
2019-01-30T09:56:45.967Z,26.4
2019-01-30T09:57:36.303Z,26.4
2019-01-30T09:58:28.552Z,26.4
2019-01-30T09:59:15.604Z,25.6
2019-01-30T10:00:06.482Z,25.4
2019-01-30T10:00:56.031Z,25.4
2019-01-30T10:01:46.183Z,25.1
2019-01-30T10:02:35.948Z,25
2019-01-30T10:03:36.798Z,25
2019-01-30T10:04:15.248Z,25.1
2019-01-30T10:05:05.790Z,25.2
2019-01-30T10:07:35.003Z,26
2019-01-30T10:08:27.222Z,26.3
2019-01-30T10:09:14.335Z,26.4
2019-01-30T10:10:03.841Z,26.4
2019-01-30T10:10:53.900Z,26.5
2019-01-30T10:11:43.037Z,26.6
2019-01-30T10:12:33.855Z,26.6
2019-01-30T10:13:24.328Z,26.7
2019-01-30T10:14:13.925Z,26.7
2019-01-30T10:15:04.285Z,26.6
2019-01-30T10:15:53.799Z,26.6
2019-01-30T10:16:44.365Z,26.6
2019-01-30T10:17:37.792Z,26.6
2019-01-30T10:18:24.778Z,26.5
2019-01-30T10:19:14.757Z,26.5
2019-01-30T10:20:05.162Z,26.4
2019-01-30T10:20:55.577Z,26.4
2019-01-30T10:21:44.977Z,26.4
2019-01-30T10:22:34.532Z,25.9
2019-01-30T10:23:24.907Z,25.5
2019-01-30T10:24:14.147Z,25.4
2019-01-30T10:25:04.722Z,25.1
2019-01-30T10:25:54.942Z,24.9
2019-01-30T10:26:44.710Z,25
2019-01-30T10:27:34.842Z,25
2019-01-30T10:28:26.582Z,25.1
2019-01-30T10:29:15.538Z,25.4
2019-01-30T10:30:07.979Z,25.8
2019-01-30T10:30:54.810Z,26
2019-01-30T10:31:45.640Z,26.2
2019-01-30T10:32:35.418Z,26.4
2019-01-30T10:33:26.005Z,26.5
2019-01-30T10:34:15.220Z,26.6
2019-01-30T10:35:05.506Z,26.6
2019-01-30T10:35:55.095Z,26.7
2019-01-30T10:36:45.661Z,26.7
2019-01-30T10:37:35.189Z,26.7
2019-01-30T10:38:26.558Z,26.7
2019-01-30T10:39:15.480Z,26.7
2019-01-30T10:40:06.440Z,26.6
2019-01-30T10:40:56.073Z,26.6
2019-01-30T10:41:46.279Z,26.6
2019-01-30T10:42:36.094Z,26.6
2019-01-30T10:43:26.739Z,26.5
2019-01-30T10:44:16.024Z,26.5
2019-01-30T10:45:06.862Z,26.4
2019-01-30T10:45:56.345Z,26.3
2019-01-30T10:46:46.171Z,25.6
2019-01-30T10:47:35.304Z,25.5
2019-01-30T10:48:26.733Z,25.5
2019-01-30T10:49:17.254Z,25.1
2019-01-30T10:50:05.902Z,25.1
2019-01-30T10:50:57.032Z,25.1
2019-01-30T10:51:46.518Z,25.1
2019-01-30T10:52:36.894Z,25.4
2019-01-30T10:53:26.459Z,25.7
2019-01-30T10:54:16.938Z,26
2019-01-30T10:55:07.514Z,26.3
2019-01-30T10:55:56.779Z,26.4
2019-01-30T10:56:47.656Z,26.4
2019-01-30T10:57:37.418Z,26.6
2019-01-30T10:58:27.252Z,26.7
2019-01-30T10:59:18.023Z,26.8
2019-01-30T11:00:07.478Z,26.8
2019-01-30T11:00:58.168Z,26.9
2019-01-30T11:01:48.071Z,26.9
2019-01-30T11:02:37.193Z,26.9
2019-01-30T11:03:27.391Z,26.9
2019-01-30T11:04:18.535Z,26.9
2019-01-30T11:05:07.665Z,26.9
2019-01-30T11:05:57.729Z,26.9
2019-01-30T11:06:47.895Z,26.8
2019-01-30T11:07:38.098Z,26.8
2019-01-30T11:08:27.983Z,26.8
2019-01-30T11:09:17.262Z,26.8
2019-01-30T11:10:08.015Z,26.7
2019-01-30T11:11:12.062Z,26.6
2019-01-30T11:11:48.653Z,26.6
2019-01-30T11:12:37.640Z,26.1
2019-01-30T11:13:28.300Z,25.5
2019-01-30T11:14:16.905Z,25.6
2019-01-30T11:15:10.944Z,26.2
2019-01-30T11:15:57.963Z,25.4
2019-01-30T11:16:48.660Z,25.1
2019-01-30T11:17:38.310Z,25
2019-01-30T11:18:28.858Z,25
2019-01-30T11:19:18.677Z,25.3
2019-01-30T11:20:09.585Z,25.6
2019-01-30T11:20:59.074Z,25.9
2019-01-30T11:21:49.127Z,26.1
2019-01-30T11:22:39.249Z,26.2